Time;durP1;ratioP1;P1;durP2;ratioP2;P2;SDS_P1;SDS_P2;PMS_P1;PMS_P2;Temp;Humidity;BMP_temperature;BMP_pressure;BME280_temperature;BME280_humidity;BME280_pressure;Samples;Min_cycle;Max_cycle;Signal;HPM_P1;HPM_P2
2022/07/10 00:00:31;;;;;;;1.30;1.30;;;;;;;;;;5067328;28;20222;-68
2022/07/10 00:02:59;;;;;;;1.25;1.13;;;;;;;;;;5066722;28;20202;-70
2022/07/10 00:05:27;;;;;;;1.45;1.30;;;;;;;;;;5067405;28;20939;-67
2022/07/10 00:07:54;;;;;;;1.10;1.10;;;;;;;;;;5066798;28;20744;-68
2022/07/10 00:10:22;;;;;;;1.60;1.50;;;;;;;;;;5067049;28;20211;-68
2022/07/10 00:12:49;;;;;;;3.13;1.10;;;;;;;;;;5066942;28;20563;-68
2022/07/10 00:15:16;;;;;;;1.00;1.00;;;;;;;;;;5067342;28;20237;-68
2022/07/10 00:17:44;;;;;;;1.25;1.15;;;;;;;;;;5065576;28;20207;-67
2022/07/10 00:20:12;;;;;;;1.60;1.20;;;;;;;;;;5066353;28;20203;-68
2022/07/10 00:22:40;;;;;;;0.80;0.80;;;;;;;;;;5066604;28;20203;-69
2022/07/10 00:25:08;;;;;;;5.10;0.80;;;;;;;;;;5066906;28;20207;-67
2022/07/10 00:27:35;;;;;;;2.75;1.02;;;;;;;;;;5066465;28;20203;-68
2022/07/10 00:30:02;;;;;;;1.00;1.00;;;;;;;;;;5066501;28;20268;-67
2022/07/10 00:32:30;;;;;;;1.88;1.10;;;;;;;;;;5066220;28;20239;-67
2022/07/10 00:34:57;;;;;;;0.80;0.80;;;;;;;;;;5066596;28;20218;-67
2022/07/10 00:37:24;;;;;;;1.23;0.90;;;;;;;;;;5066494;28;20312;-69
2022/07/10 00:39:52;;;;;;;1.38;1.30;;;;;;;;;;5066423;28;20215;-67
2022/07/10 00:42:19;;;;;;;1.02;0.88;;;;;;;;;;5065869;28;20681;-66
2022/07/10 00:44:46;;;;;;;2.13;1.17;;;;;;;;;;5066293;28;20758;-66
2022/07/10 00:47:17;;;;;;;2.08;0.80;;;;;;;;;;5066745;28;20202;-66
2022/07/10 00:49:44;;;;;;;1.95;1.33;;;;;;;;;;5053692;28;20211;-67
2022/07/10 00:52:12;;;;;;;1.13;1.08;;;;;;;;;;5066193;28;20238;-67
2022/07/10 00:54:40;;;;;;;1.30;1.02;;;;;;;;;;5064171;28;20574;-67
2022/07/10 00:57:09;;;;;;;2.38;1.15;;;;;;;;;;5063788;28;20303;-67
2022/07/10 00:59:36;;;;;;;1.15;0.85;;;;;;;;;;5065703;28;20256;-67
2022/07/10 01:02:04;;;;;;;1.10;1.00;;;;;;;;;;5066022;28;20264;-67
2022/07/10 01:04:32;;;;;;;0.90;0.90;;;;;;;;;;5064471;28;20214;-67
2022/07/10 01:06:59;;;;;;;1.05;0.95;;;;;;;;;;5062820;28;20207;-67
2022/07/10 01:09:26;;;;;;;0.60;0.60;;;;;;;;;;5066448;28;20721;-67
2022/07/10 01:11:53;;;;;;;1.90;1.17;;;;;;;;;;5066405;28;20226;-67
2022/07/10 01:14:22;;;;;;;3.40;0.93;;;;;;;;;;5064319;28;20746;-67
2022/07/10 01:16:49;;;;;;;2.60;1.00;;;;;;;;;;5066874;28;20214;-67
2022/07/10 01:19:16;;;;;;;2.35;1.00;;;;;;;;;;5066045;28;20207;-67
2022/07/10 01:21:44;;;;;;;2.05;1.17;;;;;;;;;;5065897;28;20196;-67
2022/07/10 01:24:12;;;;;;;1.77;0.88;;;;;;;;;;5065688;28;20696;-67
2022/07/10 01:26:42;;;;;;;0.95;0.95;;;;;;;;;;5065992;28;20206;-67
2022/07/10 01:29:10;;;;;;;2.65;1.13;;;;;;;;;;5066071;28;20210;-67
2022/07/10 01:31:37;;;;;;;2.47;0.80;;;;;;;;;;5065439;28;20223;-66
2022/07/10 01:34:06;;;;;;;1.15;1.15;;;;;;;;;;5065799;28;20210;-67
2022/07/10 01:36:33;;;;;;;3.17;1.20;;;;;;;;;;5065938;28;20211;-67
2022/07/10 01:39:02;;;;;;;0.95;0.85;;;;;;;;;;5065995;28;20275;-66
2022/07/10 01:41:29;;;;;;;1.17;0.98;;;;;;;;;;5064686;28;20210;-66
2022/07/10 01:43:56;;;;;;;2.33;0.85;;;;;;;;;;5063081;28;20215;-68
2022/07/10 01:46:24;;;;;;;0.80;0.80;;;;;;;;;;5069053;28;20246;-66
2022/07/10 01:48:51;;;;;;;0.93;0.70;;;;;;;;;;5069405;28;20203;-67
2022/07/10 01:51:18;;;;;;;0.65;0.63;;;;;;;;;;5067627;28;20303;-66
2022/07/10 01:53:45;;;;;;;2.47;1.08;;;;;;;;;;5067877;28;20268;-67
2022/07/10 01:56:14;;;;;;;2.97;0.77;;;;;;;;;;5062944;28;20231;-67
2022/07/10 01:58:41;;;;;;;2.85;0.70;;;;;;;;;;5052563;28;20211;-67
2022/07/10 02:01:10;;;;;;;2.33;1.15;;;;;;;;;;5062707;28;20223;-67
2022/07/10 02:06:22;;;;;;;1.10;0.70;;;;;;;;;;5069424;28;20207;-67
2022/07/10 02:08:49;;;;;;;0.57;0.57;;;;;;;;;;5069374;28;20268;-68
2022/07/10 02:11:17;;;;;;;0.80;0.80;;;;;;;;;;5065709;28;20626;-67
2022/07/10 02:13:44;;;;;;;2.85;0.90;;;;;;;;;;5067338;28;20230;-68
2022/07/10 02:16:32;;;;;;;2.10;0.80;;;;;;;;;;5067457;28;20748;-67
2022/07/10 02:18:59;;;;;;;0.47;0.47;;;;;;;;;;5069109;28;20203;-67
2022/07/10 02:21:26;;;;;;;1.15;0.82;;;;;;;;;;5067301;28;20211;-68
2022/07/10 02:23:53;;;;;;;0.95;0.55;;;;;;;;;;5069194;28;20211;-67
2022/07/10 02:26:22;;;;;;;0.82;0.80;;;;;;;;;;5065308;28;20207;-67
2022/07/10 02:28:49;;;;;;;1.08;0.93;;;;;;;;;;5065035;28;20202;-67
2022/07/10 02:31:16;;;;;;;0.70;0.70;;;;;;;;;;5066577;28;20206;-67
2022/07/10 02:33:43;;;;;;;0.82;0.82;;;;;;;;;;5067753;28;20219;-67
2022/07/10 02:36:10;;;;;;;0.70;0.70;;;;;;;;;;5067466;28;20431;-67
2022/07/10 02:38:37;;;;;;;4.07;0.75;;;;;;;;;;5067381;28;20486;-68
2022/07/10 02:41:04;;;;;;;0.68;0.68;;;;;;;;;;5067458;28;20207;-68
2022/07/10 02:43:32;;;;;;;0.57;0.57;;;;;;;;;;5067821;28;20207;-67
2022/07/10 02:45:59;;;;;;;0.63;0.63;;;;;;;;;;5067724;28;20239;-67
2022/07/10 02:48:26;;;;;;;2.40;0.60;;;;;;;;;;5067903;28;20207;-67
2022/07/10 02:50:53;;;;;;;3.45;0.77;;;;;;;;;;5067776;28;20214;-68
2022/07/10 02:53:21;;;;;;;4.13;0.70;;;;;;;;;;5073205;28;20295;-67
2022/07/10 02:55:48;;;;;;;2.67;0.70;;;;;;;;;;5075755;28;20226;-67
2022/07/10 02:58:15;;;;;;;0.80;0.80;;;;;;;;;;5076093;28;20211;-67
2022/07/10 03:00:43;;;;;;;0.75;0.75;;;;;;;;;;5075562;28;20207;-67
2022/07/10 03:03:11;;;;;;;1.27;0.80;;;;;;;;;;5074896;28;20203;-67
2022/07/10 03:05:38;;;;;;;1.15;0.80;;;;;;;;;;5075190;28;20340;-67
2022/07/10 03:08:05;;;;;;;2.55;1.00;;;;;;;;;;5075009;28;20216;-67
2022/07/10 03:10:32;;;;;;;0.60;0.60;;;;;;;;;;5075085;28;20256;-67
2022/07/10 03:12:59;;;;;;;0.95;0.85;;;;;;;;;;5075118;28;20268;-67
2022/07/10 03:15:26;;;;;;;0.60;0.60;;;;;;;;;;5074748;28;20264;-67
2022/07/10 03:17:54;;;;;;;0.60;0.60;;;;;;;;;;5074888;28;20271;-67
2022/07/10 03:20:21;;;;;;;0.98;0.82;;;;;;;;;;5074612;28;20210;-68
2022/07/10 03:22:48;;;;;;;0.60;0.60;;;;;;;;;;5075085;28;20276;-67
2022/07/10 03:25:15;;;;;;;0.70;0.70;;;;;;;;;;5075333;28;20276;-68
2022/07/10 03:27:43;;;;;;;1.27;0.60;;;;;;;;;;5074649;28;20272;-67
2022/07/10 03:30:10;;;;;;;1.08;0.70;;;;;;;;;;5074492;28;20253;-67
2022/07/10 03:32:37;;;;;;;1.58;0.80;;;;;;;;;;5073146;28;20222;-66
2022/07/10 03:35:06;;;;;;;0.77;0.70;;;;;;;;;;5074821;28;20211;-67
2022/07/10 03:37:33;;;;;;;0.90;0.90;;;;;;;;;;5075274;28;20260;-69
2022/07/10 03:40:00;;;;;;;1.23;0.57;;;;;;;;;;5075026;28;20237;-69
2022/07/10 03:42:27;;;;;;;2.05;0.52;;;;;;;;;;5072672;28;20207;-68
2022/07/10 03:44:54;;;;;;;1.48;0.70;;;;;;;;;;5075043;28;20272;-68
2022/07/10 03:47:21;;;;;;;0.50;0.50;;;;;;;;;;5074769;28;20232;-68
2022/07/10 03:49:48;;;;;;;0.60;0.43;;;;;;;;;;5075106;28;20244;-68
2022/07/10 03:52:16;;;;;;;0.60;0.60;;;;;;;;;;5074715;28;20265;-69
2022/07/10 03:54:43;;;;;;;2.47;0.68;;;;;;;;;;5071917;28;20227;-68
2022/07/10 03:59:55;;;;;;;0.95;0.95;;;;;;;;;;5075433;28;20225;-68
2022/07/10 04:02:22;;;;;;;4.75;1.00;;;;;;;;;;5074867;28;20676;-68
2022/07/10 04:04:49;;;;;;;2.50;0.70;;;;;;;;;;5072763;28;20207;-69
2022/07/10 04:07:17;;;;;;;1.95;0.77;;;;;;;;;;5072079;28;20616;-68
2022/07/10 04:09:44;;;;;;;2.05;0.82;;;;;;;;;;5072554;28;20211;-68
2022/07/10 04:12:12;;;;;;;4.30;0.90;;;;;;;;;;5071539;28;20207;-68
2022/07/10 04:14:39;;;;;;;1.70;0.60;;;;;;;;;;5052440;28;20216;-67
2022/07/10 04:17:06;;;;;;;3.30;0.57;;;;;;;;;;5066218;28;20207;-67
2022/07/10 04:19:33;;;;;;;0.65;0.65;;;;;;;;;;5072210;28;20207;-67
2022/07/10 04:22:00;;;;;;;5.45;0.65;;;;;;;;;;5071852;28;20321;-68
2022/07/10 04:24:28;;;;;;;1.33;0.88;;;;;;;;;;5071402;28;20207;-68
2022/07/10 04:26:55;;;;;;;0.73;0.57;;;;;;;;;;5070986;28;20874;-68
2022/07/10 04:29:22;;;;;;;1.33;0.60;;;;;;;;;;5069422;28;20755;-68
2022/07/10 04:31:49;;;;;;;0.40;0.40;;;;;;;;;;5071944;28;20706;-68
2022/07/10 04:34:16;;;;;;;0.65;0.50;;;;;;;;;;5071325;28;20226;-68
2022/07/10 04:36:43;;;;;;;0.73;0.50;;;;;;;;;;5071986;28;20261;-68
2022/07/10 04:39:10;;;;;;;0.60;0.60;;;;;;;;;;5071796;28;20211;-67
2022/07/10 04:41:39;;;;;;;0.70;0.52;;;;;;;;;;5071910;28;20207;-67
2022/07/10 04:44:06;;;;;;;0.65;0.52;;;;;;;;;;5064770;28;20252;-68
2022/07/10 04:46:33;;;;;;;1.20;0.55;;;;;;;;;;5065944;28;20234;-68
2022/07/10 04:49:00;;;;;;;0.45;0.45;;;;;;;;;;5068263;28;20660;-68
2022/07/10 04:51:27;;;;;;;0.50;0.50;;;;;;;;;;5070442;28;20645;-68
2022/07/10 04:53:54;;;;;;;0.75;0.52;;;;;;;;;;5074214;28;20359;-68
2022/07/10 04:56:21;;;;;;;0.50;0.50;;;;;;;;;;5070802;28;20213;-68
2022/07/10 04:58:49;;;;;;;0.30;0.30;;;;;;;;;;5070536;28;20210;-68
2022/07/10 05:01:16;;;;;;;1.40;0.55;;;;;;;;;;5070616;28;20260;-68
2022/07/10 05:03:43;;;;;;;1.20;0.40;;;;;;;;;;5070109;28;20203;-67
2022/07/10 05:06:10;;;;;;;0.43;0.40;;;;;;;;;;5070328;28;20203;-68
2022/07/10 05:08:38;;;;;;;1.02;0.40;;;;;;;;;;5070348;28;20210;-68
2022/07/10 05:11:05;;;;;;;1.05;0.63;;;;;;;;;;5069835;28;20253;-68
2022/07/10 05:13:32;;;;;;;0.45;0.45;;;;;;;;;;5069733;28;20708;-67
2022/07/10 05:16:00;;;;;;;0.75;0.52;;;;;;;;;;5068561;28;20238;-67
2022/07/10 05:18:27;;;;;;;2.10;0.52;;;;;;;;;;5069407;28;20199;-67
2022/07/10 05:20:54;;;;;;;0.40;0.40;;;;;;;;;;5069466;28;20203;-67
2022/07/10 05:23:21;;;;;;;1.48;0.43;;;;;;;;;;5068093;28;20203;-67
2022/07/10 05:25:48;;;;;;;0.93;0.38;;;;;;;;;;5070847;28;20210;-67
2022/07/10 05:28:15;;;;;;;0.52;0.52;;;;;;;;;;5070489;28;20207;-67
2022/07/10 05:30:43;;;;;;;0.77;0.47;;;;;;;;;;5070363;28;20696;-67
2022/07/10 05:33:11;;;;;;;1.67;0.40;;;;;;;;;;5069754;28;20459;-68
2022/07/10 05:35:38;;;;;;;0.40;0.40;;;;;;;;;;5069694;28;20206;-68
2022/07/10 05:38:05;;;;;;;3.65;0.47;;;;;;;;;;5066787;28;20203;-66
2022/07/10 05:40:32;;;;;;;0.52;0.50;;;;;;;;;;5074000;28;20211;-67
2022/07/10 05:42:59;;;;;;;0.70;0.50;;;;;;;;;;5070495;28;20199;-68
2022/07/10 05:45:26;;;;;;;0.30;0.30;;;;;;;;;;5070339;28;20238;-68
2022/07/10 05:47:54;;;;;;;0.30;0.30;;;;;;;;;;5070370;28;20199;-68
2022/07/10 05:50:22;;;;;;;0.93;0.43;;;;;;;;;;5070640;28;20268;-69
2022/07/10 05:52:49;;;;;;;2.13;0.40;;;;;;;;;;5070424;28;20291;-68
2022/07/10 05:55:16;;;;;;;1.38;0.40;;;;;;;;;;5070457;28;20215;-68
2022/07/10 05:57:43;;;;;;;0.52;0.38;;;;;;;;;;5070168;28;20272;-69
2022/07/10 06:00:11;;;;;;;0.45;0.45;;;;;;;;;;5070471;28;20202;-69
2022/07/10 06:02:38;;;;;;;0.35;0.30;;;;;;;;;;5070257;28;20654;-69
2022/07/10 06:05:05;;;;;;;2.63;0.50;;;;;;;;;;5069056;28;20264;-69
2022/07/10 06:07:34;;;;;;;0.20;0.20;;;;;;;;;;5069968;28;20246;-69
2022/07/10 06:10:01;;;;;;;2.58;0.50;;;;;;;;;;5068791;28;20214;-69
2022/07/10 06:12:28;;;;;;;0.65;0.40;;;;;;;;;;5068548;28;20211;-68
2022/07/10 06:14:55;;;;;;;0.25;0.25;;;;;;;;;;5072355;28;20704;-68
2022/07/10 06:17:22;;;;;;;1.30;0.50;;;;;;;;;;5069291;28;20215;-69
2022/07/10 06:19:49;;;;;;;0.30;0.30;;;;;;;;;;5069512;28;20227;-68
2022/07/10 06:22:31;;;;;;;0.20;0.20;;;;;;;;;;5069657;28;20245;-67
2022/07/10 06:24:59;;;;;;;1.90;0.50;;;;;;;;;;5068975;28;20926;-68
2022/07/10 06:27:27;;;;;;;0.43;0.43;;;;;;;;;;5068733;28;20264;-68
2022/07/10 06:29:54;;;;;;;0.75;0.30;;;;;;;;;;5069255;28;20211;-69
2022/07/10 06:32:21;;;;;;;0.40;0.40;;;;;;;;;;5069355;28;20668;-68
2022/07/10 06:34:48;;;;;;;0.85;0.40;;;;;;;;;;5068915;28;20222;-68
2022/07/10 06:37:15;;;;;;;0.52;0.30;;;;;;;;;;5069567;28;20198;-69
2022/07/10 06:39:42;;;;;;;1.10;0.30;;;;;;;;;;5068809;28;20558;-69
2022/07/10 06:42:10;;;;;;;0.43;0.40;;;;;;;;;;5069056;28;20233;-69
2022/07/10 06:44:37;;;;;;;0.20;0.20;;;;;;;;;;5065203;28;20234;-69
2022/07/10 06:49:50;;;;;;;1.30;0.40;;;;;;;;;;5068090;28;20644;-69
2022/07/10 06:52:17;;;;;;;0.30;0.30;;;;;;;;;;5059985;28;20909;-68
2022/07/10 06:54:44;;;;;;;2.03;0.30;;;;;;;;;;5066667;28;20227;-69
2022/07/10 06:57:13;;;;;;;0.30;0.30;;;;;;;;;;5060977;28;20199;-68
2022/07/10 06:59:40;;;;;;;0.20;0.20;;;;;;;;;;5066657;28;20272;-68
2022/07/10 07:02:07;;;;;;;1.33;0.43;;;;;;;;;;5068534;28;20207;-63
2022/07/10 07:04:34;;;;;;;0.65;0.40;;;;;;;;;;5068831;28;20240;-63
2022/07/10 07:07:01;;;;;;;0.90;0.28;;;;;;;;;;5067637;28;20276;-65
2022/07/10 07:09:28;;;;;;;0.32;0.30;;;;;;;;;;5064956;28;20202;-67
2022/07/10 07:11:55;;;;;;;0.40;0.40;;;;;;;;;;5060876;28;20265;-67
2022/07/10 07:14:23;;;;;;;0.20;0.20;;;;;;;;;;5064435;28;20231;-67
2022/07/10 07:16:59;;;;;;;0.90;0.50;;;;;;;;;;5066091;28;20203;-66
2022/07/10 07:19:31;;;;;;;0.63;0.28;;;;;;;;;;5064455;28;20289;-66
2022/07/10 07:24:43;;;;;;;0.28;0.28;;;;;;;;;;5067888;28;20206;-68
2022/07/10 07:27:10;;;;;;;0.65;0.30;;;;;;;;;;5067366;28;20203;-68
2022/07/10 07:29:39;;;;;;;0.55;0.28;;;;;;;;;;5066808;28;20207;-67
2022/07/10 07:32:06;;;;;;;0.77;0.30;;;;;;;;;;5066621;28;20255;-68
2022/07/10 07:34:33;;;;;;;0.20;0.20;;;;;;;;;;5066809;28;20284;-63
2022/07/10 07:37:00;;;;;;;0.35;0.30;;;;;;;;;;5063863;28;20207;-69
2022/07/10 07:39:27;;;;;;;0.30;0.30;;;;;;;;;;5067555;28;20203;-67
2022/07/10 07:41:54;;;;;;;0.25;0.20;;;;;;;;;;5068428;28;20207;-69
2022/07/10 07:44:21;;;;;;;0.50;0.30;;;;;;;;;;5072011;28;20207;-68
2022/07/10 07:46:49;;;;;;;0.85;0.30;;;;;;;;;;5070200;28;20227;-68
2022/07/10 07:49:16;;;;;;;1.60;0.30;;;;;;;;;;5068881;28;20826;-68
2022/07/10 07:51:43;;;;;;;0.20;0.20;;;;;;;;;;5068831;28;20260;-68
2022/07/10 07:54:10;;;;;;;0.32;0.32;;;;;;;;;;5065988;28;20748;-69
2022/07/10 07:56:37;;;;;;;0.30;0.30;;;;;;;;;;5071284;28;20658;-68
2022/07/10 07:59:04;;;;;;;0.50;0.50;;;;;;;;;;5066837;28;20222;-69
2022/07/10 08:01:31;;;;;;;1.98;0.47;;;;;;;;;;5070629;28;20215;-68
2022/07/10 08:04:00;;;;;;;1.75;0.30;;;;;;;;;;5071432;28;20202;-69
2022/07/10 08:06:27;;;;;;;0.55;0.50;;;;;;;;;;5070463;28;20264;-69
2022/07/10 08:08:54;;;;;;;0.93;0.30;;;;;;;;;;5071132;28;20276;-66
2022/07/10 08:11:21;;;;;;;1.95;0.30;;;;;;;;;;5071880;28;20211;-67
2022/07/10 08:13:49;;;;;;;0.55;0.25;;;;;;;;;;5071595;28;20227;-68
2022/07/10 08:16:16;;;;;;;1.13;0.40;;;;;;;;;;5069666;28;20741;-68
2022/07/10 08:18:43;;;;;;;2.83;0.50;;;;;;;;;;5071353;28;20276;-66
2022/07/10 08:21:12;;;;;;;0.32;0.32;;;;;;;;;;5070732;28;20730;-68
2022/07/10 08:23:39;;;;;;;0.22;0.22;;;;;;;;;;5071157;28;20272;-70
2022/07/10 08:26:06;;;;;;;0.43;0.40;;;;;;;;;;5070938;28;20202;-82
2022/07/10 08:28:33;;;;;;;0.32;0.32;;;;;;;;;;5071291;28;20227;-68
2022/07/10 08:31:01;;;;;;;0.30;0.30;;;;;;;;;;5070060;28;20206;-69
2022/07/10 08:33:28;;;;;;;0.20;0.20;;;;;;;;;;5068419;28;20273;-69
2022/07/10 08:35:58;;;;;;;0.88;0.20;;;;;;;;;;5070153;28;20226;-69
2022/07/10 08:38:27;;;;;;;1.00;0.30;;;;;;;;;;5070689;28;20653;-70
2022/07/10 08:40:56;;;;;;;0.88;0.20;;;;;;;;;;5070122;28;20214;-70
2022/07/10 08:43:24;;;;;;;2.45;0.30;;;;;;;;;;5068525;28;20207;-70
2022/07/10 08:45:53;;;;;;;0.30;0.30;;;;;;;;;;5069721;28;20962;-69
2022/07/10 08:48:22;;;;;;;0.52;0.20;;;;;;;;;;5051846;28;20233;-70
2022/07/10 08:50:49;;;;;;;0.35;0.20;;;;;;;;;;5074267;28;20245;-69
2022/07/10 08:53:20;;;;;;;0.65;0.40;;;;;;;;;;5067912;28;20272;-70
2022/07/10 08:55:48;;;;;;;1.00;0.40;;;;;;;;;;5070394;28;20242;-70
2022/07/10 08:58:15;;;;;;;0.90;0.40;;;;;;;;;;5068984;28;20222;-69
2022/07/10 09:00:42;;;;;;;1.65;0.40;;;;;;;;;;5068800;28;20621;-70
2022/07/10 09:03:09;;;;;;;0.93;0.50;;;;;;;;;;5073158;28;20207;-70
2022/07/10 09:05:36;;;;;;;0.90;0.40;;;;;;;;;;5068148;28;20269;-69
2022/07/10 09:08:04;;;;;;;2.78;0.30;;;;;;;;;;5063045;28;20234;-70
2022/07/10 09:10:32;;;;;;;1.05;0.25;;;;;;;;;;5064758;28;20211;-70
2022/07/10 09:13:01;;;;;;;3.25;0.40;;;;;;;;;;5068954;28;20210;-70
2022/07/10 09:15:31;;;;;;;0.43;0.43;;;;;;;;;;5069828;28;20238;-70
2022/07/10 09:18:00;;;;;;;0.40;0.40;;;;;;;;;;5068334;28;20215;-66
2022/07/10 09:20:29;;;;;;;1.15;0.57;;;;;;;;;;5069800;28;20210;-68
2022/07/10 09:22:56;;;;;;;0.65;0.55;;;;;;;;;;5068434;28;20203;-69
2022/07/10 09:25:23;;;;;;;0.50;0.50;;;;;;;;;;5067515;28;20627;-69
2022/07/10 09:27:54;;;;;;;1.55;0.40;;;;;;;;;;5076394;28;20210;-69
2022/07/10 09:30:34;;;;;;;3.03;0.50;;;;;;;;;;5067684;28;20199;-68
2022/07/10 09:33:18;;;;;;;0.85;0.43;;;;;;;;;;5068973;28;20613;-65
2022/07/10 09:36:07;;;;;;;0.30;0.30;;;;;;;;;;5069332;28;20326;-69
2022/07/10 09:38:51;;;;;;;1.40;0.30;;;;;;;;;;5070401;28;20211;-68
2022/07/10 09:41:20;;;;;;;0.40;0.40;;;;;;;;;;5068585;28;20223;-67
2022/07/10 09:43:47;;;;;;;3.45;0.88;;;;;;;;;;5069408;28;20211;-63
2022/07/10 09:46:15;;;;;;;3.83;0.60;;;;;;;;;;5066490;28;20238;-67
2022/07/10 09:48:42;;;;;;;0.85;0.60;;;;;;;;;;5071410;28;20275;-63
2022/07/10 09:51:10;;;;;;;0.38;0.38;;;;;;;;;;5070084;28;20203;-72
2022/07/10 09:53:39;;;;;;;0.40;0.40;;;;;;;;;;5076739;28;20297;-69
2022/07/10 09:56:08;;;;;;;0.50;0.50;;;;;;;;;;5069193;28;20325;-69
2022/07/10 09:58:36;;;;;;;3.10;0.77;;;;;;;;;;5069751;28;20648;-69
2022/07/10 10:01:03;;;;;;;2.67;0.50;;;;;;;;;;5069819;28;20301;-70
2022/07/10 10:03:34;;;;;;;0.60;0.60;;;;;;;;;;5069267;28;20203;-70
2022/07/10 10:06:03;;;;;;;0.50;0.50;;;;;;;;;;5069686;28;20692;-69
2022/07/10 10:08:31;;;;;;;0.65;0.47;;;;;;;;;;5069902;28;20211;-69
2022/07/10 10:10:59;;;;;;;0.75;0.52;;;;;;;;;;5069476;28;20261;-69
2022/07/10 10:13:27;;;;;;;1.33;0.57;;;;;;;;;;5069128;28;20214;-68
2022/07/10 10:15:55;;;;;;;1.95;0.57;;;;;;;;;;5069387;28;20230;-69
2022/07/10 10:18:23;;;;;;;0.47;0.40;;;;;;;;;;5069237;28;20624;-69
2022/07/10 10:20:52;;;;;;;0.45;0.45;;;;;;;;;;5068846;28;20250;-69
2022/07/10 10:23:20;;;;;;;1.20;0.45;;;;;;;;;;5072211;28;20206;-69
2022/07/10 10:25:47;;;;;;;1.27;0.73;;;;;;;;;;5052100;28;20242;-69
2022/07/10 10:28:15;;;;;;;0.40;0.40;;;;;;;;;;5069115;28;20210;-69
2022/07/10 10:30:43;;;;;;;6.13;0.77;;;;;;;;;;5065783;28;20215;-70
2022/07/10 10:33:28;;;;;;;1.98;0.60;;;;;;;;;;5071304;28;20209;-69
2022/07/10 10:35:57;;;;;;;2.55;0.50;;;;;;;;;;5067878;28;20226;-69
2022/07/10 10:38:24;;;;;;;0.68;0.55;;;;;;;;;;5088214;28;20367;-69
2022/07/10 10:40:51;;;;;;;1.58;0.60;;;;;;;;;;5088732;28;20246;-69
2022/07/10 10:43:19;;;;;;;1.40;0.47;;;;;;;;;;5088415;28;20259;-69
2022/07/10 10:45:46;;;;;;;0.63;0.60;;;;;;;;;;5076396;28;20343;-69
2022/07/10 10:48:14;;;;;;;1.08;0.63;;;;;;;;;;5070198;28;20210;-68
2022/07/10 10:50:42;;;;;;;2.63;0.60;;;;;;;;;;5088416;28;20214;-68
2022/07/10 10:53:20;;;;;;;1.73;0.70;;;;;;;;;;5068681;28;20214;-68
2022/07/10 10:56:07;;;;;;;0.70;0.60;;;;;;;;;;5068286;28;20704;-68
2022/07/10 10:58:38;;;;;;;1.05;0.52;;;;;;;;;;5068685;28;20608;-69
2022/07/10 11:01:05;;;;;;;0.75;0.63;;;;;;;;;;5069575;28;20657;-68
2022/07/10 11:03:32;;;;;;;0.63;0.50;;;;;;;;;;5069664;28;20207;-68
2022/07/10 11:06:02;;;;;;;1.48;0.60;;;;;;;;;;5068783;28;20199;-69
2022/07/10 11:08:44;;;;;;;0.70;0.65;;;;;;;;;;5068541;28;20261;-68
2022/07/10 11:11:30;;;;;;;0.35;0.35;;;;;;;;;;5067295;28;20700;-68
2022/07/10 11:13:58;;;;;;;0.40;0.40;;;;;;;;;;5066294;28;20276;-68
2022/07/10 11:16:25;;;;;;;1.15;1.02;;;;;;;;;;5070788;28;20285;-68
2022/07/10 11:18:54;;;;;;;0.60;0.60;;;;;;;;;;5070412;28;20452;-68
2022/07/10 11:21:26;;;;;;;0.40;0.40;;;;;;;;;;5070684;28;20226;-68
2022/07/10 11:23:58;;;;;;;0.73;0.50;;;;;;;;;;5070118;28;20209;-68
2022/07/10 11:26:29;;;;;;;0.88;0.60;;;;;;;;;;5057385;28;20788;-70
2022/07/10 11:28:57;;;;;;;2.03;0.50;;;;;;;;;;5070235;28;20199;-68
2022/07/10 11:31:25;;;;;;;0.55;0.40;;;;;;;;;;5071695;28;20713;-68
2022/07/10 11:33:53;;;;;;;2.97;0.57;;;;;;;;;;5071352;28;20203;-68
2022/07/10 11:36:21;;;;;;;0.63;0.45;;;;;;;;;;5071174;28;20238;-68
2022/07/10 11:38:49;;;;;;;0.40;0.40;;;;;;;;;;5071195;28;20206;-68
2022/07/10 11:41:19;;;;;;;0.77;0.50;;;;;;;;;;5071625;28;20206;-68
2022/07/10 11:43:50;;;;;;;1.00;0.55;;;;;;;;;;5079430;28;20802;-67
2022/07/10 11:46:18;;;;;;;0.65;0.60;;;;;;;;;;5071561;28;20222;-67
2022/07/10 11:48:46;;;;;;;1.02;0.60;;;;;;;;;;5071499;28;20203;-64
2022/07/10 11:51:20;;;;;;;0.50;0.50;;;;;;;;;;5071853;28;20214;-65
2022/07/10 11:53:57;;;;;;;0.63;0.60;;;;;;;;;;5071527;28;20260;-64
2022/07/10 11:56:26;;;;;;;2.50;0.77;;;;;;;;;;5071500;28;20261;-65
2022/07/10 11:59:00;;;;;;;1.90;0.55;;;;;;;;;;5068102;28;20296;-65
2022/07/10 12:01:28;;;;;;;0.65;0.63;;;;;;;;;;5070211;28;20268;-66
2022/07/10 12:03:56;;;;;;;1.20;0.80;;;;;;;;;;5071812;28;20199;-65
2022/07/10 12:06:24;;;;;;;0.60;0.60;;;;;;;;;;5071747;28;20302;-66
2022/07/10 12:08:51;;;;;;;2.42;0.60;;;;;;;;;;5071398;28;20214;-65
2022/07/10 12:11:18;;;;;;;0.70;0.70;;;;;;;;;;5071148;28;20211;-66
2022/07/10 12:13:48;;;;;;;1.08;0.40;;;;;;;;;;5071148;28;20305;-66
2022/07/10 12:16:15;;;;;;;1.40;0.50;;;;;;;;;;5071291;28;20268;-66
2022/07/10 12:18:43;;;;;;;0.57;0.57;;;;;;;;;;5071692;28;20207;-66
2022/07/10 12:21:10;;;;;;;0.65;0.65;;;;;;;;;;5089434;28;20210;-66
2022/07/10 12:23:40;;;;;;;0.47;0.43;;;;;;;;;;5075755;28;20207;-66
2022/07/10 12:26:09;;;;;;;0.30;0.30;;;;;;;;;;5074546;28;20584;-66
2022/07/10 12:28:50;;;;;;;0.40;0.40;;;;;;;;;;5085910;28;20337;-67
2022/07/10 12:31:21;;;;;;;0.40;0.40;;;;;;;;;;5056557;28;20199;-66
2022/07/10 12:33:52;;;;;;;0.50;0.50;;;;;;;;;;5069749;28;20260;-66
2022/07/10 12:36:20;;;;;;;0.63;0.63;;;;;;;;;;5068742;28;20223;-66
2022/07/10 12:38:54;;;;;;;2.28;0.60;;;;;;;;;;5070034;28;20448;-67
2022/07/10 12:41:24;;;;;;;0.63;0.52;;;;;;;;;;5059962;28;20831;-68
2022/07/10 12:43:52;;;;;;;1.98;0.50;;;;;;;;;;5068243;28;20238;-68
2022/07/10 12:46:20;;;;;;;1.20;0.57;;;;;;;;;;5069692;28;20236;-68
2022/07/10 12:49:02;;;;;;;1.05;0.30;;;;;;;;;;5070996;28;20257;-68
2022/07/10 12:51:30;;;;;;;0.40;0.40;;;;;;;;;;5069891;28;20264;-68
2022/07/10 12:53:57;;;;;;;0.50;0.50;;;;;;;;;;5069973;28;20214;-68
2022/07/10 12:56:34;;;;;;;1.95;0.70;;;;;;;;;;5069622;28;20673;-68
2022/07/10 12:59:03;;;;;;;0.40;0.35;;;;;;;;;;5071002;28;20220;-64
2022/07/10 13:01:30;;;;;;;0.38;0.38;;;;;;;;;;5090657;28;20218;-67
2022/07/10 13:04:01;;;;;;;0.60;0.38;;;;;;;;;;5089818;28;20263;-68
2022/07/10 13:06:29;;;;;;;0.52;0.30;;;;;;;;;;5089851;28;20296;-66
2022/07/10 13:08:56;;;;;;;2.05;0.55;;;;;;;;;;5089717;28;20214;-66
2022/07/10 13:11:23;;;;;;;0.85;0.73;;;;;;;;;;5089601;28;20214;-64
2022/07/10 13:13:50;;;;;;;3.22;0.40;;;;;;;;;;5089807;28;20612;-66
2022/07/10 13:16:18;;;;;;;0.30;0.30;;;;;;;;;;5089244;28;20221;-65
2022/07/10 13:18:46;;;;;;;1.13;0.57;;;;;;;;;;5089839;28;20203;-66
2022/07/10 13:21:13;;;;;;;0.20;0.20;;;;;;;;;;5089293;28;20202;-66
2022/07/10 13:23:41;;;;;;;0.45;0.32;;;;;;;;;;5080220;28;20210;-66
2022/07/10 13:26:08;;;;;;;0.68;0.50;;;;;;;;;;5067316;28;20250;-66
2022/07/10 13:28:35;;;;;;;0.75;0.30;;;;;;;;;;5067905;28;20207;-67
2022/07/10 13:31:03;;;;;;;0.80;0.30;;;;;;;;;;5065375;28;20209;-64
2022/07/10 13:33:31;;;;;;;1.77;0.30;;;;;;;;;;5068012;28;20199;-66
2022/07/10 13:36:00;;;;;;;0.68;0.65;;;;;;;;;;5068121;28;20222;-66
2022/07/10 13:38:27;;;;;;;0.40;0.20;;;;;;;;;;5066633;28;20203;-66
2022/07/10 13:40:54;;;;;;;0.30;0.30;;;;;;;;;;5067785;28;20244;-66
2022/07/10 13:43:26;;;;;;;0.20;0.20;;;;;;;;;;5067947;28;20207;-65
2022/07/10 13:45:53;;;;;;;0.75;0.30;;;;;;;;;;5067544;28;20262;-65
2022/07/10 13:48:20;;;;;;;0.32;0.20;;;;;;;;;;5065410;28;20257;-65
2022/07/10 13:50:49;;;;;;;0.30;0.30;;;;;;;;;;5063847;28;20664;-65
2022/07/10 13:53:17;;;;;;;1.85;0.20;;;;;;;;;;5067589;28;20211;-66
2022/07/10 13:55:44;;;;;;;0.10;0.10;;;;;;;;;;5067832;28;20330;-66
2022/07/10 13:58:11;;;;;;;0.15;0.15;;;;;;;;;;5066769;28;20203;-66
2022/07/10 14:00:39;;;;;;;0.20;0.20;;;;;;;;;;5064606;28;20233;-66
2022/07/10 14:03:07;;;;;;;0.30;0.30;;;;;;;;;;5067478;28;20207;-67
2022/07/10 14:05:34;;;;;;;0.50;0.28;;;;;;;;;;5066719;28;20203;-66
2022/07/10 14:08:03;;;;;;;0.20;0.20;;;;;;;;;;5067960;28;20203;-66
2022/07/10 14:10:30;;;;;;;2.05;0.30;;;;;;;;;;5067961;28;20294;-67
2022/07/10 14:12:57;;;;;;;1.08;0.30;;;;;;;;;;5067586;28;20203;-67
2022/07/10 14:15:25;;;;;;;0.38;0.38;;;;;;;;;;5067821;28;20207;-66
2022/07/10 14:17:52;;;;;;;0.30;0.30;;;;;;;;;;5068214;28;20203;-66
2022/07/10 14:20:19;;;;;;;0.20;0.20;;;;;;;;;;5067584;28;20207;-67
2022/07/10 14:22:47;;;;;;;0.40;0.30;;;;;;;;;;5067511;28;20253;-67
2022/07/10 14:25:16;;;;;;;0.30;0.30;;;;;;;;;;5067193;28;20209;-67
2022/07/10 14:27:43;;;;;;;1.55;0.38;;;;;;;;;;5064738;28;20195;-67
2022/07/10 14:30:10;;;;;;;0.47;0.47;;;;;;;;;;5066347;28;20199;-68
2022/07/10 14:32:37;;;;;;;0.40;0.40;;;;;;;;;;5066268;28;20607;-67
2022/07/10 14:35:04;;;;;;;0.15;0.15;;;;;;;;;;5066264;28;20203;-67
2022/07/10 14:37:31;;;;;;;0.20;0.20;;;;;;;;;;5064722;28;20223;-68
2022/07/10 14:39:58;;;;;;;0.30;0.30;;;;;;;;;;5067475;28;20207;-67
2022/07/10 14:42:27;;;;;;;0.30;0.30;;;;;;;;;;5059794;28;20203;-66
2022/07/10 14:44:54;;;;;;;1.88;1.77;;;;;;;;;;5065365;28;20230;-66
2022/07/10 14:47:21;;;;;;;0.28;0.28;;;;;;;;;;5070944;28;20203;-67
2022/07/10 14:49:48;;;;;;;0.32;0.32;;;;;;;;;;5086458;28;20637;-65
2022/07/10 14:52:17;;;;;;;0.30;0.30;;;;;;;;;;5072542;28;20203;-64
2022/07/10 14:54:45;;;;;;;3.53;0.60;;;;;;;;;;5067479;28;20304;-67
2022/07/10 14:57:13;;;;;;;0.45;0.32;;;;;;;;;;5067841;28;20234;-68
2022/07/10 14:59:41;;;;;;;0.40;0.40;;;;;;;;;;5068149;28;20519;-68